To NAV CANADA Home Page Login to a new session Search on AWWS site Feedback and Comments Disclaimer Vers la page française équivalente Tips FAQ What's new on the site To the Forecasts and Observations / NOTAM section To "File a Flight Plan" website Publications and other links Update of the User's profile FIC Telephone Numbers My Weather Data Folder Route Weather Data Regional Weather Data Local Weather Data To the Forecasts and Observations / NOTAM section
Request Generated 09/02/2015 at 10:27:34 UTC . Weather information available at that time is displayed.

METAR/TAF

ARVIAT/NU    

SPECI CYEK 021023Z AUTO 15013KT 3SM -RA BR OVC005 08/08 A2989 RMK
SLP121=
SPECI CYEK 021017Z AUTO 16013KT 4SM BR OVC005 08/08 A2989 RMK SLP121=
SPECI CYEK 021007Z AUTO 15013KT 3SM -RA BR BKN005 OVC008 08/08 A2989
RMK SLP121=
METAR CYEK 021000Z AUTO 15013KT 4SM BR OVC005 08/08 A2989 RMK SLP121=
SPECI CYEK 020936Z AUTO 15013KT 5SM BR BKN007 OVC011 08/08 A2988 RMK
SLP120=
SPECI CYEK 020934Z AUTO 15013KT 7SM BKN007 OVC011 08/08 A2988 RMK
SLP120=
SPECI CYEK 020912Z AUTO 15012KT 9SM BKN009 OVC015 08/08 A2988 RMK
SLP120=
METAR CYEK 020900Z AUTO 15012KT 9SM FEW009 OVC015 08/08 A2988 RMK
SLP120=
SPECI CYEK 020852Z AUTO 15012KT 9SM SCT009 OVC015 08/08 A2988 RMK
SLP120=
SPECI CYEK 020801Z AUTO 15011KT 9SM BKN013 OVC025 08/08 A2988 RMK
SLP120=
METAR CYEK 020800Z AUTO 15012KT 9SM SCT013 OVC025 08/08 A2988 RMK
SLP120=

TAF AMD CYEK 020952Z 0209/0218 14012KT P6SM SCT006 OVC015 TEMPO
0209/0215 2SM -DZ BR BKN006
FM021500 14015KT P6SM SCT008 BKN025 TEMPO 0215/0218 4SM -DZ BR
BKN008 OVC025
RMK FCST BASED ON AUTO OBS. NXT FCST BY 021200Z=
Your time UTC time
Weather data provided by Environment Canada and NAV CANADA